sensor_id;sensor_type;location;lat;lon;timestamp;P1;durP1;ratioP1;P2;durP2;ratioP2
16460;SDS011;8341;42.048;24.650;2023-09-18T00:00:23;8.43;;;6.10;;
16460;SDS011;8341;42.048;24.650;2023-09-18T00:02:50;8.43;;;5.68;;
16460;SDS011;8341;42.048;24.650;2023-09-18T00:05:17;6.32;;;5.32;;
16460;SDS011;8341;42.048;24.650;2023-09-18T00:07:44;6.28;;;4.95;;
16460;SDS011;8341;42.048;24.650;2023-09-18T00:10:12;8.00;;;5.43;;
16460;SDS011;8341;42.048;24.650;2023-09-18T00:12:39;7.43;;;5.15;;
16460;SDS011;8341;42.048;24.650;2023-09-18T00:15:07;8.65;;;5.65;;
16460;SDS011;8341;42.048;24.650;2023-09-18T00:17:34;7.80;;;4.88;;
16460;SDS011;8341;42.048;24.650;2023-09-18T00:20:02;8.07;;;4.72;;
16460;SDS011;8341;42.048;24.650;2023-09-18T00:22:32;7.72;;;4.93;;
16460;SDS011;8341;42.048;24.650;2023-09-18T00:24:59;5.95;;;4.93;;
16460;SDS011;8341;42.048;24.650;2023-09-18T00:27:28;7.78;;;5.15;;
16460;SDS011;8341;42.048;24.650;2023-09-18T00:29:55;8.40;;;4.95;;
16460;SDS011;8341;42.048;24.650;2023-09-18T00:32:22;4.80;;;4.22;;
16460;SDS011;8341;42.048;24.650;2023-09-18T00:34:49;6.47;;;4.35;;
16460;SDS011;8341;42.048;24.650;2023-09-18T00:37:16;7.90;;;4.68;;
16460;SDS011;8341;42.048;24.650;2023-09-18T00:39:43;8.43;;;4.45;;
16460;SDS011;8341;42.048;24.650;2023-09-18T00:42:10;6.18;;;4.57;;
16460;SDS011;8341;42.048;24.650;2023-09-18T00:44:40;7.07;;;4.85;;
16460;SDS011;8341;42.048;24.650;2023-09-18T00:47:07;5.60;;;4.75;;
16460;SDS011;8341;42.048;24.650;2023-09-18T00:49:35;9.93;;;4.55;;
16460;SDS011;8341;42.048;24.650;2023-09-18T00:52:05;8.02;;;4.32;;
16460;SDS011;8341;42.048;24.650;2023-09-18T00:54:33;5.47;;;4.43;;
16460;SDS011;8341;42.048;24.650;2023-09-18T00:57:02;8.30;;;4.45;;
16460;SDS011;8341;42.048;24.650;2023-09-18T00:59:29;6.32;;;4.82;;
16460;SDS011;8341;42.048;24.650;2023-09-18T01:01:59;6.53;;;4.22;;
16460;SDS011;8341;42.048;24.650;2023-09-18T01:04:26;8.32;;;4.70;;
16460;SDS011;8341;42.048;24.650;2023-09-18T01:06:55;7.85;;;4.32;;
16460;SDS011;8341;42.048;24.650;2023-09-18T01:09:23;5.43;;;4.30;;
16460;SDS011;8341;42.048;24.650;2023-09-18T01:11:51;7.10;;;4.43;;
16460;SDS011;8341;42.048;24.650;2023-09-18T01:14:28;8.10;;;4.75;;
16460;SDS011;8341;42.048;24.650;2023-09-18T01:17:01;8.13;;;4.60;;
16460;SDS011;8341;42.048;24.650;2023-09-18T01:19:34;6.78;;;4.28;;
16460;SDS011;8341;42.048;24.650;2023-09-18T01:22:05;5.97;;;4.28;;
16460;SDS011;8341;42.048;24.650;2023-09-18T01:24:34;7.82;;;4.78;;
16460;SDS011;8341;42.048;24.650;2023-09-18T01:27:02;6.75;;;4.47;;
16460;SDS011;8341;42.048;24.650;2023-09-18T01:29:29;5.95;;;4.20;;
16460;SDS011;8341;42.048;24.650;2023-09-18T01:31:56;10.95;;;5.13;;
16460;SDS011;8341;42.048;24.650;2023-09-18T01:34:25;8.43;;;4.50;;
16460;SDS011;8341;42.048;24.650;2023-09-18T01:36:57;7.38;;;4.30;;
16460;SDS011;8341;42.048;24.650;2023-09-18T01:39:24;8.27;;;4.38;;
16460;SDS011;8341;42.048;24.650;2023-09-18T01:41:54;7.43;;;4.57;;
16460;SDS011;8341;42.048;24.650;2023-09-18T01:44:21;7.00;;;4.40;;
16460;SDS011;8341;42.048;24.650;2023-09-18T01:46:48;10.43;;;5.97;;
16460;SDS011;8341;42.048;24.650;2023-09-18T01:49:16;4.93;;;4.25;;
16460;SDS011;8341;42.048;24.650;2023-09-18T01:51:52;7.28;;;4.68;;
16460;SDS011;8341;42.048;24.650;2023-09-18T01:54:19;6.50;;;4.95;;
16460;SDS011;8341;42.048;24.650;2023-09-18T01:56:47;7.30;;;4.18;;
16460;SDS011;8341;42.048;24.650;2023-09-18T01:59:15;6.35;;;4.65;;
16460;SDS011;8341;42.048;24.650;2023-09-18T02:01:43;6.00;;;4.10;;
16460;SDS011;8341;42.048;24.650;2023-09-18T02:04:10;7.65;;;4.40;;
16460;SDS011;8341;42.048;24.650;2023-09-18T02:06:37;6.60;;;4.20;;
16460;SDS011;8341;42.048;24.650;2023-09-18T02:09:04;6.30;;;4.63;;
16460;SDS011;8341;42.048;24.650;2023-09-18T02:11:32;5.68;;;4.07;;
16460;SDS011;8341;42.048;24.650;2023-09-18T02:14:00;6.57;;;4.70;;
16460;SDS011;8341;42.048;24.650;2023-09-18T02:16:31;7.13;;;4.57;;
16460;SDS011;8341;42.048;24.650;2023-09-18T02:18:58;22.70;;;18.15;;
16460;SDS011;8341;42.048;24.650;2023-09-18T02:21:25;25.88;;;20.40;;
16460;SDS011;8341;42.048;24.650;2023-09-18T02:23:53;23.50;;;15.60;;
16460;SDS011;8341;42.048;24.650;2023-09-18T02:26:21;18.95;;;15.85;;
16460;SDS011;8341;42.048;24.650;2023-09-18T02:28:49;14.77;;;12.65;;
16460;SDS011;8341;42.048;24.650;2023-09-18T02:31:17;17.30;;;12.43;;
16460;SDS011;8341;42.048;24.650;2023-09-18T02:33:46;17.02;;;11.77;;
16460;SDS011;8341;42.048;24.650;2023-09-18T02:36:13;14.85;;;12.15;;
16460;SDS011;8341;42.048;24.650;2023-09-18T02:38:41;21.42;;;15.50;;
16460;SDS011;8341;42.048;24.650;2023-09-18T02:41:08;12.93;;;7.28;;
16460;SDS011;8341;42.048;24.650;2023-09-18T02:43:35;13.13;;;7.93;;
16460;SDS011;8341;42.048;24.650;2023-09-18T02:46:03;9.98;;;7.15;;
16460;SDS011;8341;42.048;24.650;2023-09-18T02:48:30;12.50;;;8.02;;
16460;SDS011;8341;42.048;24.650;2023-09-18T02:50:59;12.82;;;8.88;;
16460;SDS011;8341;42.048;24.650;2023-09-18T02:53:26;28.05;;;10.40;;
16460;SDS011;8341;42.048;24.650;2023-09-18T02:55:53;9.00;;;6.60;;
16460;SDS011;8341;42.048;24.650;2023-09-18T02:58:21;7.40;;;5.13;;
16460;SDS011;8341;42.048;24.650;2023-09-18T03:00:51;7.22;;;5.47;;
16460;SDS011;8341;42.048;24.650;2023-09-18T03:03:19;10.70;;;6.25;;
16460;SDS011;8341;42.048;24.650;2023-09-18T03:05:46;6.60;;;4.70;;
16460;SDS011;8341;42.048;24.650;2023-09-18T03:08:14;11.88;;;5.80;;
16460;SDS011;8341;42.048;24.650;2023-09-18T03:10:42;7.57;;;5.53;;
16460;SDS011;8341;42.048;24.650;2023-09-18T03:13:10;6.47;;;4.80;;
16460;SDS011;8341;42.048;24.650;2023-09-18T03:15:39;12.55;;;7.78;;
16460;SDS011;8341;42.048;24.650;2023-09-18T03:18:06;18.23;;;13.93;;
16460;SDS011;8341;42.048;24.650;2023-09-18T03:20:33;13.95;;;8.57;;
16460;SDS011;8341;42.048;24.650;2023-09-18T03:23:00;10.68;;;8.95;;
16460;SDS011;8341;42.048;24.650;2023-09-18T03:25:30;11.10;;;7.22;;
16460;SDS011;8341;42.048;24.650;2023-09-18T03:27:57;10.20;;;6.95;;
16460;SDS011;8341;42.048;24.650;2023-09-18T03:30:24;9.40;;;5.75;;
16460;SDS011;8341;42.048;24.650;2023-09-18T03:32:52;10.20;;;6.78;;
16460;SDS011;8341;42.048;24.650;2023-09-18T03:35:19;9.10;;;6.03;;
16460;SDS011;8341;42.048;24.650;2023-09-18T03:37:47;8.93;;;6.50;;
16460;SDS011;8341;42.048;24.650;2023-09-18T03:40:14;7.90;;;5.88;;
16460;SDS011;8341;42.048;24.650;2023-09-18T03:42:44;6.30;;;4.88;;
16460;SDS011;8341;42.048;24.650;2023-09-18T03:45:11;8.13;;;5.40;;
16460;SDS011;8341;42.048;24.650;2023-09-18T03:47:38;8.75;;;5.53;;
16460;SDS011;8341;42.048;24.650;2023-09-18T03:50:06;8.75;;;5.03;;
16460;SDS011;8341;42.048;24.650;2023-09-18T03:52:34;7.75;;;5.40;;
16460;SDS011;8341;42.048;24.650;2023-09-18T03:55:01;6.35;;;4.97;;
16460;SDS011;8341;42.048;24.650;2023-09-18T03:57:29;8.98;;;5.95;;
16460;SDS011;8341;42.048;24.650;2023-09-18T03:59:57;9.10;;;5.75;;
16460;SDS011;8341;42.048;24.650;2023-09-18T04:02:24;7.05;;;5.03;;
16460;SDS011;8341;42.048;24.650;2023-09-18T04:04:53;5.82;;;4.72;;
16460;SDS011;8341;42.048;24.650;2023-09-18T04:07:20;9.63;;;5.10;;
16460;SDS011;8341;42.048;24.650;2023-09-18T04:09:47;8.65;;;5.80;;
16460;SDS011;8341;42.048;24.650;2023-09-18T04:12:14;6.75;;;4.75;;
16460;SDS011;8341;42.048;24.650;2023-09-18T04:14:41;5.88;;;4.88;;
16460;SDS011;8341;42.048;24.650;2023-09-18T04:17:10;7.40;;;5.03;;
16460;SDS011;8341;42.048;24.650;2023-09-18T04:19:37;7.22;;;5.10;;
16460;SDS011;8341;42.048;24.650;2023-09-18T04:22:04;9.02;;;5.72;;
16460;SDS011;8341;42.048;24.650;2023-09-18T04:24:31;8.80;;;5.75;;
16460;SDS011;8341;42.048;24.650;2023-09-18T04:26:57;7.35;;;5.20;;
16460;SDS011;8341;42.048;24.650;2023-09-18T04:29:24;6.70;;;5.10;;
16460;SDS011;8341;42.048;24.650;2023-09-18T04:31:51;8.50;;;5.28;;
16460;SDS011;8341;42.048;24.650;2023-09-18T04:34:20;8.63;;;5.75;;
16460;SDS011;8341;42.048;24.650;2023-09-18T04:36:47;7.95;;;5.40;;
16460;SDS011;8341;42.048;24.650;2023-09-18T04:39:14;7.90;;;5.40;;
16460;SDS011;8341;42.048;24.650;2023-09-18T04:41:41;5.78;;;5.18;;
16460;SDS011;8341;42.048;24.650;2023-09-18T04:44:08;6.18;;;4.95;;
16460;SDS011;8341;42.048;24.650;2023-09-18T04:46:38;8.73;;;5.45;;
16460;SDS011;8341;42.048;24.650;2023-09-18T04:49:07;8.73;;;5.13;;
16460;SDS011;8341;42.048;24.650;2023-09-18T04:51:37;10.02;;;4.93;;
16460;SDS011;8341;42.048;24.650;2023-09-18T04:54:06;6.88;;;5.10;;
16460;SDS011;8341;42.048;24.650;2023-09-18T04:56:33;8.73;;;6.80;;
16460;SDS011;8341;42.048;24.650;2023-09-18T04:59:00;29.02;;;24.50;;
16460;SDS011;8341;42.048;24.650;2023-09-18T05:01:27;19.00;;;16.20;;
16460;SDS011;8341;42.048;24.650;2023-09-18T05:03:55;17.55;;;13.77;;
16460;SDS011;8341;42.048;24.650;2023-09-18T05:06:22;11.65;;;7.32;;
16460;SDS011;8341;42.048;24.650;2023-09-18T05:08:50;7.43;;;5.88;;
16460;SDS011;8341;42.048;24.650;2023-09-18T05:11:18;7.50;;;5.80;;
16460;SDS011;8341;42.048;24.650;2023-09-18T05:13:45;9.45;;;6.07;;
16460;SDS011;8341;42.048;24.650;2023-09-18T05:16:12;6.15;;;5.45;;
16460;SDS011;8341;42.048;24.650;2023-09-18T05:18:39;6.80;;;5.72;;
16460;SDS011;8341;42.048;24.650;2023-09-18T05:21:08;8.45;;;5.88;;
16460;SDS011;8341;42.048;24.650;2023-09-18T05:23:36;6.95;;;5.68;;
16460;SDS011;8341;42.048;24.650;2023-09-18T05:26:04;5.95;;;5.03;;
16460;SDS011;8341;42.048;24.650;2023-09-18T05:28:31;7.05;;;5.55;;
16460;SDS011;8341;42.048;24.650;2023-09-18T05:30:58;8.57;;;5.57;;
16460;SDS011;8341;42.048;24.650;2023-09-18T05:33:25;9.50;;;5.65;;
16460;SDS011;8341;42.048;24.650;2023-09-18T05:35:52;10.38;;;6.07;;
16460;SDS011;8341;42.048;24.650;2023-09-18T05:38:19;11.25;;;5.97;;
16460;SDS011;8341;42.048;24.650;2023-09-18T05:40:46;8.07;;;5.78;;
16460;SDS011;8341;42.048;24.650;2023-09-18T05:43:14;10.40;;;6.20;;
16460;SDS011;8341;42.048;24.650;2023-09-18T05:45:41;12.10;;;6.13;;
16460;SDS011;8341;42.048;24.650;2023-09-18T05:48:08;11.43;;;6.60;;
16460;SDS011;8341;42.048;24.650;2023-09-18T05:50:35;11.05;;;6.28;;
16460;SDS011;8341;42.048;24.650;2023-09-18T05:53:02;9.88;;;6.22;;
16460;SDS011;8341;42.048;24.650;2023-09-18T05:55:30;10.07;;;6.47;;
16460;SDS011;8341;42.048;24.650;2023-09-18T05:57:57;9.38;;;6.18;;
16460;SDS011;8341;42.048;24.650;2023-09-18T06:00:26;10.23;;;6.32;;
16460;SDS011;8341;42.048;24.650;2023-09-18T06:02:55;8.82;;;6.55;;
16460;SDS011;8341;42.048;24.650;2023-09-18T06:05:24;8.57;;;6.40;;
16460;SDS011;8341;42.048;24.650;2023-09-18T06:07:51;9.13;;;5.95;;
16460;SDS011;8341;42.048;24.650;2023-09-18T06:10:18;10.75;;;6.40;;
16460;SDS011;8341;42.048;24.650;2023-09-18T06:12:45;9.63;;;6.40;;
16460;SDS011;8341;42.048;24.650;2023-09-18T06:15:12;9.40;;;6.07;;
16460;SDS011;8341;42.048;24.650;2023-09-18T06:17:41;7.85;;;5.93;;
16460;SDS011;8341;42.048;24.650;2023-09-18T06:20:09;11.48;;;6.43;;
16460;SDS011;8341;42.048;24.650;2023-09-18T06:22:37;9.98;;;6.32;;
16460;SDS011;8341;42.048;24.650;2023-09-18T06:25:06;10.00;;;6.53;;
16460;SDS011;8341;42.048;24.650;2023-09-18T06:27:35;9.35;;;6.57;;
16460;SDS011;8341;42.048;24.650;2023-09-18T06:30:03;9.18;;;6.70;;
16460;SDS011;8341;42.048;24.650;2023-09-18T06:32:31;13.20;;;7.55;;
16460;SDS011;8341;42.048;24.650;2023-09-18T06:35:00;12.80;;;8.43;;
16460;SDS011;8341;42.048;24.650;2023-09-18T06:37:27;9.07;;;7.35;;
16460;SDS011;8341;42.048;24.650;2023-09-18T06:39:54;9.68;;;7.65;;
16460;SDS011;8341;42.048;24.650;2023-09-18T06:42:21;11.40;;;8.05;;
16460;SDS011;8341;42.048;24.650;2023-09-18T06:44:48;8.98;;;6.60;;
16460;SDS011;8341;42.048;24.650;2023-09-18T06:47:15;9.88;;;6.50;;
16460;SDS011;8341;42.048;24.650;2023-09-18T06:49:42;9.88;;;6.95;;
16460;SDS011;8341;42.048;24.650;2023-09-18T06:52:11;8.55;;;6.10;;
16460;SDS011;8341;42.048;24.650;2023-09-18T06:54:38;8.38;;;5.60;;
16460;SDS011;8341;42.048;24.650;2023-09-18T06:57:06;9.38;;;5.70;;
16460;SDS011;8341;42.048;24.650;2023-09-18T06:59:33;13.10;;;4.97;;
16460;SDS011;8341;42.048;24.650;2023-09-18T07:02:00;5.53;;;4.63;;
16460;SDS011;8341;42.048;24.650;2023-09-18T07:04:27;10.07;;;4.95;;
16460;SDS011;8341;42.048;24.650;2023-09-18T07:06:54;5.18;;;4.32;;
16460;SDS011;8341;42.048;24.650;2023-09-18T07:09:23;4.63;;;4.10;;
16460;SDS011;8341;42.048;24.650;2023-09-18T07:11:51;5.55;;;3.97;;
16460;SDS011;8341;42.048;24.650;2023-09-18T07:14:18;7.57;;;4.03;;
16460;SDS011;8341;42.048;24.650;2023-09-18T07:16:46;6.20;;;3.80;;
16460;SDS011;8341;42.048;24.650;2023-09-18T07:19:13;5.65;;;4.03;;
16460;SDS011;8341;42.048;24.650;2023-09-18T07:21:42;4.63;;;4.03;;
16460;SDS011;8341;42.048;24.650;2023-09-18T07:24:10;8.35;;;4.10;;
16460;SDS011;8341;42.048;24.650;2023-09-18T07:26:44;8.25;;;4.53;;
16460;SDS011;8341;42.048;24.650;2023-09-18T07:29:12;7.63;;;4.28;;
16460;SDS011;8341;42.048;24.650;2023-09-18T07:31:40;5.82;;;3.92;;
16460;SDS011;8341;42.048;24.650;2023-09-18T07:34:08;5.68;;;3.75;;
16460;SDS011;8341;42.048;24.650;2023-09-18T07:36:35;4.30;;;3.90;;
16460;SDS011;8341;42.048;24.650;2023-09-18T07:39:02;6.13;;;4.10;;
16460;SDS011;8341;42.048;24.650;2023-09-18T07:41:30;8.50;;;4.40;;
16460;SDS011;8341;42.048;24.650;2023-09-18T07:43:59;6.00;;;4.47;;
16460;SDS011;8341;42.048;24.650;2023-09-18T07:46:26;5.47;;;4.03;;
16460;SDS011;8341;42.048;24.650;2023-09-18T07:48:53;6.47;;;4.07;;
16460;SDS011;8341;42.048;24.650;2023-09-18T07:51:20;6.07;;;4.45;;
16460;SDS011;8341;42.048;24.650;2023-09-18T07:53:47;6.50;;;4.78;;
16460;SDS011;8341;42.048;24.650;2023-09-18T07:56:14;8.40;;;4.43;;
16460;SDS011;8341;42.048;24.650;2023-09-18T07:58:41;9.20;;;4.93;;
16460;SDS011;8341;42.048;24.650;2023-09-18T08:01:09;5.38;;;4.32;;
16460;SDS011;8341;42.048;24.650;2023-09-18T08:03:36;7.20;;;4.35;;
16460;SDS011;8341;42.048;24.650;2023-09-18T08:06:03;5.13;;;4.05;;
16460;SDS011;8341;42.048;24.650;2023-09-18T08:08:31;6.85;;;4.40;;
16460;SDS011;8341;42.048;24.650;2023-09-18T08:11:00;7.55;;;4.93;;
16460;SDS011;8341;42.048;24.650;2023-09-18T08:13:34;8.25;;;4.88;;
16460;SDS011;8341;42.048;24.650;2023-09-18T08:16:02;7.22;;;4.63;;
16460;SDS011;8341;42.048;24.650;2023-09-18T08:18:31;8.65;;;4.40;;
16460;SDS011;8341;42.048;24.650;2023-09-18T08:20:58;5.30;;;4.35;;
16460;SDS011;8341;42.048;24.650;2023-09-18T08:23:25;8.32;;;4.70;;
16460;SDS011;8341;42.048;24.650;2023-09-18T08:25:52;5.47;;;4.65;;
16460;SDS011;8341;42.048;24.650;2023-09-18T08:28:22;4.72;;;4.32;;
16460;SDS011;8341;42.048;24.650;2023-09-18T08:30:49;5.75;;;4.40;;
16460;SDS011;8341;42.048;24.650;2023-09-18T08:33:16;4.65;;;4.22;;
16460;SDS011;8341;42.048;24.650;2023-09-18T08:35:45;10.20;;;4.43;;
16460;SDS011;8341;42.048;24.650;2023-09-18T08:38:12;7.85;;;4.63;;
16460;SDS011;8341;42.048;24.650;2023-09-18T08:40:40;8.07;;;4.40;;
16460;SDS011;8341;42.048;24.650;2023-09-18T08:43:09;6.20;;;4.60;;
16460;SDS011;8341;42.048;24.650;2023-09-18T08:45:39;8.63;;;4.40;;
16460;SDS011;8341;42.048;24.650;2023-09-18T08:48:12;5.13;;;4.03;;
16460;SDS011;8341;42.048;24.650;2023-09-18T08:50:39;5.18;;;4.38;;
16460;SDS011;8341;42.048;24.650;2023-09-18T08:53:10;4.57;;;4.18;;
16460;SDS011;8341;42.048;24.650;2023-09-18T08:55:37;5.82;;;3.92;;
16460;SDS011;8341;42.048;24.650;2023-09-18T08:58:05;6.00;;;3.90;;
16460;SDS011;8341;42.048;24.650;2023-09-18T09:00:32;4.30;;;3.90;;
16460;SDS011;8341;42.048;24.650;2023-09-18T09:03:00;4.25;;;3.85;;
16460;SDS011;8341;42.048;24.650;2023-09-18T09:05:29;4.15;;;3.75;;
16460;SDS011;8341;42.048;24.650;2023-09-18T09:07:57;6.38;;;4.47;;
16460;SDS011;8341;42.048;24.650;2023-09-18T09:10:25;5.38;;;4.93;;
16460;SDS011;8341;42.048;24.650;2023-09-18T09:12:53;6.00;;;4.72;;
16460;SDS011;8341;42.048;24.650;2023-09-18T09:15:21;4.50;;;3.95;;
16460;SDS011;8341;42.048;24.650;2023-09-18T09:17:49;5.30;;;4.20;;
16460;SDS011;8341;42.048;24.650;2023-09-18T09:20:17;6.47;;;4.38;;
16460;SDS011;8341;42.048;24.650;2023-09-18T09:22:45;7.53;;;4.78;;
16460;SDS011;8341;42.048;24.650;2023-09-18T09:25:26;5.20;;;4.65;;
16460;SDS011;8341;42.048;24.650;2023-09-18T09:27:56;5.90;;;4.60;;
16460;SDS011;8341;42.048;24.650;2023-09-18T09:30:24;4.65;;;4.30;;
16460;SDS011;8341;42.048;24.650;2023-09-18T09:32:52;4.30;;;4.00;;
16460;SDS011;8341;42.048;24.650;2023-09-18T09:35:24;5.15;;;4.13;;
16460;SDS011;8341;42.048;24.650;2023-09-18T09:37:53;6.15;;;4.45;;
16460;SDS011;8341;42.048;24.650;2023-09-18T09:40:25;4.68;;;4.18;;
16460;SDS011;8341;42.048;24.650;2023-09-18T09:42:55;5.65;;;4.47;;
16460;SDS011;8341;42.048;24.650;2023-09-18T09:45:27;4.57;;;3.40;;
16460;SDS011;8341;42.048;24.650;2023-09-18T09:48:00;7.05;;;3.30;;
16460;SDS011;8341;42.048;24.650;2023-09-18T09:50:31;4.18;;;3.55;;
16460;SDS011;8341;42.048;24.650;2023-09-18T09:52:58;4.38;;;3.45;;
16460;SDS011;8341;42.048;24.650;2023-09-18T09:55:29;5.60;;;3.70;;
16460;SDS011;8341;42.048;24.650;2023-09-18T09:57:58;4.30;;;3.90;;
16460;SDS011;8341;42.048;24.650;2023-09-18T10:00:27;3.83;;;3.55;;
16460;SDS011;8341;42.048;24.650;2023-09-18T10:03:02;4.15;;;3.33;;
16460;SDS011;8341;42.048;24.650;2023-09-18T10:05:31;5.47;;;3.85;;
16460;SDS011;8341;42.048;24.650;2023-09-18T10:08:01;5.28;;;3.80;;
16460;SDS011;8341;42.048;24.650;2023-09-18T10:10:33;3.58;;;3.22;;
16460;SDS011;8341;42.048;24.650;2023-09-18T10:13:05;6.03;;;3.60;;
16460;SDS011;8341;42.048;24.650;2023-09-18T10:15:36;5.55;;;3.40;;
16460;SDS011;8341;42.048;24.650;2023-09-18T10:18:10;6.70;;;3.92;;
16460;SDS011;8341;42.048;24.650;2023-09-18T10:20:44;4.65;;;4.25;;
16460;SDS011;8341;42.048;24.650;2023-09-18T10:23:15;4.00;;;3.35;;
16460;SDS011;8341;42.048;24.650;2023-09-18T10:25:55;5.75;;;3.75;;
16460;SDS011;8341;42.048;24.650;2023-09-18T10:28:28;5.35;;;3.25;;
16460;SDS011;8341;42.048;24.650;2023-09-18T10:30:56;7.63;;;3.83;;
16460;SDS011;8341;42.048;24.650;2023-09-18T10:33:24;5.03;;;3.17;;
16460;SDS011;8341;42.048;24.650;2023-09-18T10:35:53;4.38;;;3.97;;
16460;SDS011;8341;42.048;24.650;2023-09-18T10:38:20;3.78;;;3.47;;
16460;SDS011;8341;42.048;24.650;2023-09-18T10:40:48;3.53;;;3.00;;
16460;SDS011;8341;42.048;24.650;2023-09-18T10:43:19;3.30;;;3.00;;
16460;SDS011;8341;42.048;24.650;2023-09-18T10:45:46;3.13;;;2.63;;
16460;SDS011;8341;42.048;24.650;2023-09-18T10:48:15;3.83;;;2.80;;
16460;SDS011;8341;42.048;24.650;2023-09-18T10:50:44;3.00;;;2.70;;
16460;SDS011;8341;42.048;24.650;2023-09-18T10:53:12;3.72;;;2.53;;
16460;SDS011;8341;42.048;24.650;2023-09-18T10:55:40;2.67;;;2.40;;
16460;SDS011;8341;42.048;24.650;2023-09-18T10:58:09;3.03;;;2.70;;
16460;SDS011;8341;42.048;24.650;2023-09-18T11:00:38;3.70;;;2.40;;
16460;SDS011;8341;42.048;24.650;2023-09-18T11:03:13;2.28;;;2.08;;
16460;SDS011;8341;42.048;24.650;2023-09-18T11:05:43;2.30;;;2.10;;
16460;SDS011;8341;42.048;24.650;2023-09-18T11:08:28;2.90;;;2.70;;
16460;SDS011;8341;42.048;24.650;2023-09-18T11:11:00;4.18;;;2.30;;
16460;SDS011;8341;42.048;24.650;2023-09-18T11:13:38;2.22;;;2.03;;
16460;SDS011;8341;42.048;24.650;2023-09-18T11:16:17;3.55;;;2.30;;
16460;SDS011;8341;42.048;24.650;2023-09-18T11:19:10;3.47;;;2.30;;
16460;SDS011;8341;42.048;24.650;2023-09-18T11:21:39;3.78;;;2.65;;
16460;SDS011;8341;42.048;24.650;2023-09-18T11:24:06;2.60;;;2.33;;
16460;SDS011;8341;42.048;24.650;2023-09-18T11:26:36;16.73;;;3.08;;
16460;SDS011;8341;42.048;24.650;2023-09-18T11:29:07;3.80;;;2.30;;
16460;SDS011;8341;42.048;24.650;2023-09-18T11:31:43;3.38;;;2.10;;
16460;SDS011;8341;42.048;24.650;2023-09-18T11:34:12;2.22;;;2.13;;
16460;SDS011;8341;42.048;24.650;2023-09-18T11:36:45;5.57;;;2.28;;
16460;SDS011;8341;42.048;24.650;2023-09-18T11:39:12;3.42;;;2.28;;
16460;SDS011;8341;42.048;24.650;2023-09-18T11:41:39;2.08;;;1.98;;
16460;SDS011;8341;42.048;24.650;2023-09-18T11:47:03;2.70;;;2.50;;
16460;SDS011;8341;42.048;24.650;2023-09-18T11:49:37;2.40;;;2.20;;
16460;SDS011;8341;42.048;24.650;2023-09-18T11:52:08;3.85;;;2.05;;
16460;SDS011;8341;42.048;24.650;2023-09-18T11:54:36;3.70;;;2.40;;
16460;SDS011;8341;42.048;24.650;2023-09-18T11:57:06;4.43;;;2.33;;
16460;SDS011;8341;42.048;24.650;2023-09-18T11:59:34;2.67;;;2.30;;
16460;SDS011;8341;42.048;24.650;2023-09-18T12:02:04;3.55;;;2.65;;
16460;SDS011;8341;42.048;24.650;2023-09-18T12:04:33;2.95;;;2.33;;
16460;SDS011;8341;42.048;24.650;2023-09-18T12:07:01;2.45;;;2.30;;
16460;SDS011;8341;42.048;24.650;2023-09-18T12:09:29;3.40;;;2.25;;
16460;SDS011;8341;42.048;24.650;2023-09-18T12:11:58;2.88;;;2.17;;
16460;SDS011;8341;42.048;24.650;2023-09-18T12:14:29;2.80;;;2.28;;
16460;SDS011;8341;42.048;24.650;2023-09-18T12:16:58;3.55;;;2.53;;
16460;SDS011;8341;42.048;24.650;2023-09-18T12:19:27;2.88;;;2.40;;
16460;SDS011;8341;42.048;24.650;2023-09-18T12:21:54;3.25;;;2.45;;
16460;SDS011;8341;42.048;24.650;2023-09-18T12:24:21;2.63;;;2.30;;
16460;SDS011;8341;42.048;24.650;2023-09-18T12:26:48;4.30;;;2.17;;
16460;SDS011;8341;42.048;24.650;2023-09-18T12:29:15;2.53;;;2.33;;
16460;SDS011;8341;42.048;24.650;2023-09-18T12:31:43;3.47;;;2.08;;
16460;SDS011;8341;42.048;24.650;2023-09-18T12:34:14;3.85;;;2.00;;
16460;SDS011;8341;42.048;24.650;2023-09-18T12:36:44;2.78;;;1.70;;
16460;SDS011;8341;42.048;24.650;2023-09-18T12:39:12;2.42;;;2.22;;
16460;SDS011;8341;42.048;24.650;2023-09-18T12:41:41;2.53;;;2.20;;
16460;SDS011;8341;42.048;24.650;2023-09-18T12:44:09;2.58;;;2.00;;
16460;SDS011;8341;42.048;24.650;2023-09-18T12:46:37;2.60;;;2.35;;
16460;SDS011;8341;42.048;24.650;2023-09-18T12:49:17;2.28;;;2.08;;
16460;SDS011;8341;42.048;24.650;2023-09-18T12:51:53;3.25;;;1.90;;
16460;SDS011;8341;42.048;24.650;2023-09-18T12:54:21;2.47;;;2.22;;
16460;SDS011;8341;42.048;24.650;2023-09-18T12:56:48;4.30;;;2.58;;
16460;SDS011;8341;42.048;24.650;2023-09-18T12:59:15;2.70;;;2.50;;
16460;SDS011;8341;42.048;24.650;2023-09-18T13:01:45;2.90;;;2.70;;
16460;SDS011;8341;42.048;24.650;2023-09-18T13:04:13;10.10;;;3.00;;
16460;SDS011;8341;42.048;24.650;2023-09-18T13:06:40;3.80;;;2.40;;
16460;SDS011;8341;42.048;24.650;2023-09-18T13:11:52;2.58;;;2.38;;
16460;SDS011;8341;42.048;24.650;2023-09-18T13:14:20;2.83;;;2.60;;
16460;SDS011;8341;42.048;24.650;2023-09-18T13:16:46;3.10;;;2.80;;
16460;SDS011;8341;42.048;24.650;2023-09-18T13:19:13;2.60;;;2.10;;
16460;SDS011;8341;42.048;24.650;2023-09-18T13:21:45;4.45;;;2.47;;
16460;SDS011;8341;42.048;24.650;2023-09-18T13:24:25;2.95;;;2.63;;
16460;SDS011;8341;42.048;24.650;2023-09-18T13:26:52;3.17;;;2.58;;
16460;SDS011;8341;42.048;24.650;2023-09-18T13:29:20;2.47;;;2.28;;
16460;SDS011;8341;42.048;24.650;2023-09-18T13:31:47;3.38;;;2.40;;
16460;SDS011;8341;42.048;24.650;2023-09-18T13:34:13;2.53;;;2.33;;
16460;SDS011;8341;42.048;24.650;2023-09-18T13:36:43;2.60;;;2.20;;
16460;SDS011;8341;42.048;24.650;2023-09-18T13:39:10;2.95;;;2.45;;
16460;SDS011;8341;42.048;24.650;2023-09-18T13:41:38;2.90;;;2.35;;
16460;SDS011;8341;42.048;24.650;2023-09-18T13:44:06;4.70;;;3.15;;
16460;SDS011;8341;42.048;24.650;2023-09-18T13:46:33;3.35;;;2.83;;
16460;SDS011;8341;42.048;24.650;2023-09-18T13:49:01;2.47;;;2.28;;
16460;SDS011;8341;42.048;24.650;2023-09-18T13:51:29;4.43;;;2.42;;
16460;SDS011;8341;42.048;24.650;2023-09-18T13:53:56;4.43;;;2.25;;
16460;SDS011;8341;42.048;24.650;2023-09-18T13:56:23;2.65;;;2.45;;
16460;SDS011;8341;42.048;24.650;2023-09-18T13:58:54;3.05;;;2.13;;
16460;SDS011;8341;42.048;24.650;2023-09-18T14:01:21;6.50;;;2.40;;
16460;SDS011;8341;42.048;24.650;2023-09-18T14:03:50;5.15;;;2.72;;
16460;SDS011;8341;42.048;24.650;2023-09-18T14:06:17;7.15;;;3.83;;
16460;SDS011;8341;42.048;24.650;2023-09-18T14:08:43;3.25;;;2.60;;
16460;SDS011;8341;42.048;24.650;2023-09-18T14:11:10;2.55;;;2.35;;
16460;SDS011;8341;42.048;24.650;2023-09-18T14:13:37;3.17;;;2.88;;
16460;SDS011;8341;42.048;24.650;2023-09-18T14:16:05;3.05;;;2.10;;
16460;SDS011;8341;42.048;24.650;2023-09-18T14:18:32;2.50;;;2.30;;
16460;SDS011;8341;42.048;24.650;2023-09-18T14:20:59;2.40;;;2.15;;
16460;SDS011;8341;42.048;24.650;2023-09-18T14:23:26;3.05;;;1.98;;
16460;SDS011;8341;42.048;24.650;2023-09-18T14:25:53;2.30;;;2.10;;
16460;SDS011;8341;42.048;24.650;2023-09-18T14:28:20;1.95;;;1.75;;
16460;SDS011;8341;42.048;24.650;2023-09-18T14:30:47;2.50;;;2.17;;
16460;SDS011;8341;42.048;24.650;2023-09-18T14:33:15;4.07;;;2.40;;
16460;SDS011;8341;42.048;24.650;2023-09-18T14:35:42;3.90;;;2.33;;
16460;SDS011;8341;42.048;24.650;2023-09-18T17:47:58;3.83;;;3.53;;
16460;SDS011;8341;42.048;24.650;2023-09-18T17:50:24;4.40;;;4.00;;
16460;SDS011;8341;42.048;24.650;2023-09-18T17:52:51;4.13;;;3.80;;
16460;SDS011;8341;42.048;24.650;2023-09-18T17:55:18;4.50;;;4.03;;
16460;SDS011;8341;42.048;24.650;2023-09-18T17:57:45;4.05;;;3.75;;
16460;SDS011;8341;42.048;24.650;2023-09-18T18:00:12;4.20;;;3.80;;
16460;SDS011;8341;42.048;24.650;2023-09-18T18:02:41;4.07;;;3.78;;
16460;SDS011;8341;42.048;24.650;2023-09-18T18:05:09;5.60;;;4.00;;
16460;SDS011;8341;42.048;24.650;2023-09-18T18:07:36;4.00;;;3.60;;